createdAt,value
2023-05-12T00:01:28.682Z,3.67
2023-05-12T00:03:56.226Z,3.65
2023-05-12T00:06:23.460Z,4.38
2023-05-12T00:08:51.346Z,3.00
2023-05-12T00:11:18.586Z,5.93
2023-05-12T00:13:46.006Z,3.13
2023-05-12T00:16:13.623Z,3.65
2023-05-12T00:18:40.818Z,3.28
2023-05-12T00:21:08.791Z,3.55
2023-05-12T00:23:36.058Z,3.25
2023-05-12T00:26:03.168Z,4.97
2023-05-12T00:28:30.610Z,3.10
2023-05-12T00:31:02.687Z,5.22
2023-05-12T00:33:31.116Z,2.50
2023-05-12T00:36:00.591Z,3.63
2023-05-12T00:38:28.034Z,3.35
2023-05-12T00:40:55.250Z,4.53
2023-05-12T00:43:22.363Z,5.97
2023-05-12T00:45:49.682Z,3.42
2023-05-12T00:48:17.185Z,3.05
2023-05-12T00:50:44.704Z,3.75
2023-05-12T00:53:13.649Z,4.70
2023-05-12T00:55:41.519Z,4.05
2023-05-12T00:58:08.988Z,3.00
2023-05-12T01:00:36.672Z,2.63
2023-05-12T01:03:04.745Z,4.05
2023-05-12T01:05:39.481Z,4.70
2023-05-12T01:08:07.191Z,3.35
2023-05-12T01:10:34.685Z,3.42
2023-05-12T01:13:01.810Z,3.50
2023-05-12T01:15:32.114Z,6.13
2023-05-12T01:18:02.152Z,4.40
2023-05-12T01:20:30.738Z,4.03
2023-05-12T01:22:58.787Z,4.28
2023-05-12T01:25:32.399Z,4.10
2023-05-12T01:28:03.027Z,5.28
2023-05-12T01:30:32.781Z,5.18
2023-05-12T01:33:00.315Z,3.75
2023-05-12T01:35:28.293Z,6.40
2023-05-12T01:38:00.220Z,4.45
2023-05-12T01:40:27.571Z,7.60
2023-05-12T01:42:56.384Z,6.95
2023-05-12T01:45:24.349Z,4.90
2023-05-12T01:47:53.001Z,5.35
2023-05-12T01:50:20.333Z,3.67
2023-05-12T01:52:47.764Z,2.60
2023-05-12T01:55:17.417Z,5.38
2023-05-12T01:57:50.066Z,3.63
2023-05-12T02:00:17.998Z,3.65
2023-05-12T02:02:47.813Z,3.65
2023-05-12T02:05:15.134Z,5.25
2023-05-12T02:07:45.407Z,3.95
2023-05-12T02:10:13.413Z,5.97
2023-05-12T02:12:40.733Z,3.55
2023-05-12T02:15:08.382Z,3.97
2023-05-12T02:17:37.863Z,3.53
2023-05-12T02:20:06.940Z,3.85
2023-05-12T02:22:34.022Z,4.55
2023-05-12T02:25:01.267Z,4.78
2023-05-12T02:27:29.082Z,5.57
2023-05-12T02:29:56.161Z,6.32
2023-05-12T02:32:23.331Z,5.25
2023-05-12T02:34:51.768Z,8.48
2023-05-12T02:37:19.017Z,10.05
2023-05-12T02:39:47.109Z,12.18
2023-05-12T02:42:14.284Z,17.17
2023-05-12T02:44:41.810Z,15.48
2023-05-12T02:47:08.985Z,18.13
2023-05-12T02:49:36.520Z,15.10
2023-05-12T02:52:03.921Z,15.77
2023-05-12T02:54:31.379Z,17.75
2023-05-12T02:56:59.933Z,18.15
2023-05-12T02:59:27.570Z,20.40
2023-05-12T03:01:55.354Z,24.02
2023-05-12T03:04:25.656Z,17.95
2023-05-12T03:06:52.785Z,18.40
2023-05-12T03:09:20.128Z,18.40
2023-05-12T03:11:47.650Z,16.52
2023-05-12T03:14:15.067Z,18.05
2023-05-12T03:16:42.482Z,16.27
2023-05-12T03:19:09.733Z,12.38
2023-05-12T03:21:37.363Z,16.80
2023-05-12T03:24:04.969Z,18.30
2023-05-12T03:26:32.178Z,13.63
2023-05-12T03:28:59.292Z,13.48
2023-05-12T03:31:26.938Z,12.35
2023-05-12T03:33:54.292Z,17.33
2023-05-12T03:36:21.779Z,15.52
2023-05-12T03:38:48.962Z,13.50
2023-05-12T03:41:17.267Z,15.23
2023-05-12T03:43:44.485Z,12.50
2023-05-12T03:46:12.893Z,13.90
2023-05-12T03:48:40.209Z,18.45
2023-05-12T03:51:07.712Z,17.20
2023-05-12T03:53:34.961Z,18.58
2023-05-12T03:56:05.865Z,15.75
2023-05-12T03:58:33.262Z,20.95
2023-05-12T04:01:01.906Z,20.58
2023-05-12T04:03:29.734Z,20.85
2023-05-12T04:06:02.115Z,22.10
2023-05-12T04:10:58.231Z,24.83
2023-05-12T04:13:26.251Z,20.90
2023-05-12T04:15:57.900Z,22.50
2023-05-12T04:18:29.014Z,19.63
2023-05-12T04:20:56.946Z,19.30
2023-05-12T04:23:24.676Z,18.38
2023-05-12T04:25:52.278Z,19.05
2023-05-12T04:28:20.277Z,17.77
2023-05-12T04:30:48.036Z,18.05
2023-05-12T04:33:15.207Z,16.70
2023-05-12T04:35:43.064Z,21.33
2023-05-12T04:38:14.795Z,22.08
2023-05-12T04:40:42.132Z,23.13
2023-05-12T04:43:59.800Z,17.98
2023-05-12T04:45:58.591Z,20.15
2023-05-12T04:48:28.730Z,17.17
2023-05-12T04:51:00.134Z,17.77
2023-05-12T04:53:27.997Z,18.27
2023-05-12T04:55:56.702Z,21.25
2023-05-12T04:58:24.795Z,17.23
2023-05-12T05:00:53.101Z,14.57
2023-05-12T05:03:20.622Z,20.92
2023-05-12T05:05:49.125Z,15.55
2023-05-12T05:08:18.595Z,15.73
2023-05-12T05:10:45.826Z,17.80
2023-05-12T05:13:13.648Z,14.95
2023-05-12T05:15:41.546Z,15.55
2023-05-12T05:18:09.365Z,13.23
2023-05-12T05:20:40.654Z,13.98
2023-05-12T05:23:10.726Z,14.43
2023-05-12T05:25:38.160Z,16.13
2023-05-12T05:28:05.918Z,16.13
2023-05-12T05:30:33.179Z,14.75
2023-05-12T05:33:01.611Z,16.45
2023-05-12T05:35:28.940Z,14.25
2023-05-12T05:37:56.270Z,16.95
2023-05-12T05:40:23.524Z,15.10
2023-05-12T05:42:50.959Z,19.58
2023-05-12T05:45:18.413Z,17.05
2023-05-12T05:47:46.871Z,14.15
2023-05-12T05:50:14.346Z,12.93
2023-05-12T05:52:42.495Z,18.05
2023-05-12T05:55:09.946Z,14.18
2023-05-12T05:57:37.904Z,16.65
2023-05-12T06:00:08.040Z,22.67
2023-05-12T06:02:42.302Z,15.57
2023-05-12T06:05:14.270Z,16.50
2023-05-12T06:07:41.891Z,14.60
2023-05-12T06:10:10.695Z,16.88
2023-05-12T06:12:37.975Z,14.00
2023-05-12T06:15:05.651Z,14.15
2023-05-12T06:17:32.910Z,16.70
2023-05-12T06:20:00.176Z,12.32
2023-05-12T06:22:28.112Z,13.57
2023-05-12T06:24:55.218Z,9.90
2023-05-12T06:27:22.552Z,11.48
2023-05-12T06:29:49.773Z,12.75
2023-05-12T06:32:16.992Z,16.73
2023-05-12T06:34:44.343Z,12.07
2023-05-12T06:37:11.573Z,13.07
2023-05-12T06:39:38.890Z,11.95
2023-05-12T06:42:07.633Z,12.40
2023-05-12T06:44:42.688Z,11.57
2023-05-12T06:47:13.481Z,11.48
2023-05-12T06:49:41.672Z,8.57
2023-05-12T06:52:11.998Z,10.38
2023-05-12T06:54:41.915Z,13.52
2023-05-12T06:57:09.904Z,11.98
2023-05-12T06:59:37.138Z,13.40
2023-05-12T07:02:04.741Z,11.65
2023-05-12T07:04:31.872Z,11.95
2023-05-12T07:06:59.058Z,9.98
2023-05-12T07:09:26.401Z,13.27
2023-05-12T07:11:54.562Z,11.35
2023-05-12T07:14:21.795Z,10.50
2023-05-12T07:16:48.892Z,9.43
2023-05-12T07:19:16.064Z,10.10
2023-05-12T07:21:43.842Z,10.93
2023-05-12T07:24:11.240Z,11.98
2023-05-12T07:26:38.347Z,9.02
2023-05-12T07:29:07.413Z,13.77
2023-05-12T07:31:35.044Z,6.97
2023-05-12T07:34:02.568Z,6.00
2023-05-12T07:36:29.745Z,4.55
2023-05-12T07:38:57.003Z,7.60
2023-05-12T07:41:24.505Z,6.72
2023-05-12T07:43:51.634Z,5.00
2023-05-12T07:46:18.892Z,4.47
2023-05-12T07:48:46.266Z,6.70
2023-05-12T07:51:14.377Z,5.95
2023-05-12T07:53:41.662Z,6.68
2023-05-12T07:56:09.151Z,4.15
2023-05-12T07:58:46.058Z,5.65
2023-05-12T08:01:17.686Z,5.10
2023-05-12T08:03:46.141Z,4.97
2023-05-12T08:06:13.552Z,3.90
2023-05-12T08:08:40.968Z,6.35
2023-05-12T08:11:08.228Z,4.75
2023-05-12T08:13:39.585Z,7.22
2023-05-12T08:16:06.802Z,4.70
2023-05-12T08:18:34.040Z,4.45
2023-05-12T08:21:01.184Z,4.50
2023-05-12T08:23:28.614Z,6.32
2023-05-12T08:25:57.576Z,7.68
2023-05-12T08:28:25.389Z,7.43
2023-05-12T08:30:52.638Z,4.65
2023-05-12T08:33:19.978Z,7.93
2023-05-12T08:35:47.729Z,4.95
2023-05-12T08:38:15.283Z,5.55
2023-05-12T08:40:57.710Z,3.28
2023-05-12T08:43:27.499Z,4.07
2023-05-12T08:45:57.780Z,4.80
2023-05-12T08:48:35.074Z,5.20
2023-05-12T08:51:14.510Z,5.25
2023-05-12T08:53:47.246Z,4.30
2023-05-12T08:58:47.526Z,4.38
2023-05-12T09:01:16.745Z,5.57
2023-05-12T09:03:44.291Z,5.32
2023-05-12T09:06:12.360Z,5.75
2023-05-12T09:08:41.295Z,3.38
2023-05-12T09:11:12.086Z,4.03
2023-05-12T09:14:02.862Z,4.47
2023-05-12T09:16:49.511Z,6.70
2023-05-12T09:19:21.466Z,7.25
2023-05-12T09:21:49.480Z,2.83
2023-05-12T09:24:17.880Z,3.67
2023-05-12T09:26:55.175Z,3.35
2023-05-12T09:29:31.247Z,4.72
2023-05-12T09:32:03.534Z,5.63
2023-05-12T09:34:38.674Z,3.58
2023-05-12T09:37:08.319Z,4.65
2023-05-12T09:39:37.048Z,4.38
2023-05-12T09:42:10.769Z,5.50
2023-05-12T09:44:40.007Z,4.05
2023-05-12T09:47:08.298Z,3.58
2023-05-12T09:49:36.666Z,8.35
2023-05-12T09:52:05.144Z,5.45
2023-05-12T09:54:34.711Z,3.72
2023-05-12T09:57:05.346Z,2.38
2023-05-12T09:59:39.702Z,3.33
2023-05-12T10:02:09.591Z,1.52
2023-05-12T10:05:01.506Z,8.00
2023-05-12T10:07:31.575Z,4.22
2023-05-12T10:10:04.339Z,7.80
2023-05-12T10:12:33.003Z,5.85
2023-05-12T10:15:01.791Z,5.35
2023-05-12T10:17:30.083Z,8.73
2023-05-12T10:19:58.408Z,4.68
2023-05-12T10:22:27.140Z,4.00
2023-05-12T10:24:56.229Z,3.22
2023-05-12T10:27:25.682Z,6.60
2023-05-12T10:29:54.596Z,5.97
2023-05-12T10:32:21.940Z,7.20
2023-05-12T10:34:49.363Z,10.10
2023-05-12T10:37:16.788Z,8.07
2023-05-12T10:39:49.243Z,2.53
2023-05-12T10:42:23.097Z,7.43
2023-05-12T10:44:52.714Z,3.28
2023-05-12T10:47:26.914Z,4.00
2023-05-12T10:50:00.864Z,3.05
2023-05-12T10:52:28.106Z,4.43
2023-05-12T10:55:02.690Z,4.75
2023-05-12T10:57:33.562Z,3.22
2023-05-12T11:00:02.618Z,4.38
2023-05-12T11:02:34.665Z,5.13
2023-05-12T11:05:10.790Z,5.65
2023-05-12T11:07:39.647Z,4.53
2023-05-12T11:10:08.080Z,6.15
2023-05-12T11:12:36.285Z,4.05
2023-05-12T11:15:06.833Z,5.65
2023-05-12T11:17:38.291Z,7.25
2023-05-12T11:20:07.187Z,5.38
2023-05-12T11:22:34.452Z,5.40
2023-05-12T11:25:13.301Z,3.22
2023-05-12T11:27:49.772Z,6.53
2023-05-12T11:30:17.397Z,3.10
2023-05-12T11:32:44.694Z,6.22
2023-05-12T11:35:18.379Z,8.48
2023-05-12T11:37:46.616Z,3.13
2023-05-12T11:40:18.298Z,8.45
2023-05-12T11:42:49.045Z,2.38
2023-05-12T11:45:27.572Z,4.63
2023-05-12T11:48:10.178Z,5.20
2023-05-12T11:50:41.926Z,4.22
2023-05-12T11:53:15.135Z,2.53
2023-05-12T11:55:56.727Z,1.63
2023-05-12T11:58:27.242Z,4.40
2023-05-12T12:00:54.991Z,5.72
2023-05-12T12:03:24.038Z,4.65
2023-05-12T12:06:03.290Z,2.70
2023-05-12T12:08:34.372Z,4.72
2023-05-12T12:11:03.733Z,4.70
2023-05-12T12:13:31.121Z,3.42
2023-05-12T12:15:58.779Z,2.67
2023-05-12T12:18:28.491Z,3.05
2023-05-12T12:20:55.729Z,4.05
2023-05-12T12:23:23.092Z,3.63
2023-05-12T12:25:50.548Z,3.03
2023-05-12T12:28:18.001Z,4.32
2023-05-12T12:30:45.233Z,4.20
2023-05-12T12:33:13.060Z,3.13
2023-05-12T12:35:40.252Z,1.85
2023-05-12T12:38:07.649Z,2.00
2023-05-12T12:40:34.864Z,2.17
2023-05-12T12:43:02.369Z,4.72
2023-05-12T12:45:29.720Z,2.63
2023-05-12T12:47:57.023Z,3.63
2023-05-12T12:50:25.845Z,5.10
2023-05-12T12:52:55.398Z,2.97
2023-05-12T12:55:23.187Z,3.45
2023-05-12T12:57:50.695Z,3.08
2023-05-12T13:00:18.247Z,4.30
2023-05-12T13:02:45.932Z,4.80
2023-05-12T13:05:13.193Z,6.25
2023-05-12T13:07:40.597Z,8.60
2023-05-12T13:10:08.519Z,5.95
2023-05-12T13:12:36.251Z,4.35
2023-05-12T13:15:04.093Z,4.32
2023-05-12T13:17:33.487Z,5.70
2023-05-12T13:20:00.739Z,4.03
2023-05-12T13:22:29.046Z,3.50
2023-05-12T13:24:56.699Z,5.63
2023-05-12T13:27:24.305Z,4.13
2023-05-12T13:29:52.080Z,5.38
2023-05-12T13:32:34.942Z,6.65
2023-05-12T13:35:04.889Z,5.00
2023-05-12T13:37:33.067Z,5.22
2023-05-12T13:40:00.635Z,5.88
2023-05-12T13:42:27.806Z,4.97
2023-05-12T13:44:57.533Z,4.07
2023-05-12T13:47:28.119Z,4.93
2023-05-12T13:49:59.853Z,6.10
2023-05-12T13:52:27.729Z,8.27
2023-05-12T13:54:55.375Z,6.70
2023-05-12T13:57:22.825Z,6.88
2023-05-12T13:59:52.647Z,8.32
2023-05-12T14:02:22.299Z,9.02
2023-05-12T14:04:52.889Z,9.55
2023-05-12T14:07:21.093Z,7.10
2023-05-12T14:09:48.321Z,10.63
2023-05-12T14:12:16.093Z,10.15
2023-05-12T14:14:49.698Z,12.63
2023-05-12T14:17:25.383Z,13.90
2023-05-12T14:20:02.993Z,11.10
2023-05-12T14:22:36.831Z,11.20
2023-05-12T14:25:08.797Z,13.80
2023-05-12T14:27:37.651Z,12.25
2023-05-12T14:30:07.841Z,9.60
2023-05-12T14:32:36.750Z,15.30
2023-05-12T14:35:05.410Z,14.80
2023-05-12T14:37:34.732Z,15.43
2023-05-12T14:40:02.767Z,16.25
2023-05-12T14:42:32.685Z,13.13
2023-05-12T14:45:18.372Z,13.07
2023-05-12T14:47:45.918Z,14.02
2023-05-12T14:50:13.806Z,11.80
2023-05-12T14:52:41.066Z,15.27
2023-05-12T14:55:12.360Z,19.83
2023-05-12T14:57:41.823Z,16.98
2023-05-12T15:00:11.631Z,13.05
2023-05-12T15:02:43.275Z,12.57
2023-05-12T15:05:12.025Z,15.02
2023-05-12T15:07:39.592Z,13.20
2023-05-12T15:10:10.292Z,13.50
2023-05-12T15:12:43.902Z,13.88
2023-05-12T15:15:12.406Z,13.27
2023-05-12T15:17:39.891Z,14.70
2023-05-12T15:20:20.952Z,13.85
2023-05-12T15:22:48.458Z,16.20
2023-05-12T15:25:15.923Z,23.33
2023-05-12T15:27:43.070Z,13.10
2023-05-12T15:30:11.192Z,14.82
2023-05-12T15:32:41.862Z,11.95
2023-05-12T15:35:10.041Z,16.58
2023-05-12T15:37:38.502Z,17.83
2023-05-12T15:40:06.549Z,16.40
2023-05-12T15:42:33.876Z,12.45
2023-05-12T15:45:02.248Z,18.17
2023-05-12T15:47:29.650Z,13.32
2023-05-12T15:49:57.432Z,17.27
2023-05-12T15:52:24.978Z,13.60
2023-05-12T15:54:52.436Z,15.95
2023-05-12T15:57:22.843Z,17.10
2023-05-12T15:59:50.245Z,17.83
2023-05-12T16:02:21.997Z,16.83
2023-05-12T16:04:49.149Z,15.65
2023-05-12T16:07:16.616Z,17.08
2023-05-12T16:09:43.871Z,15.98
2023-05-12T16:12:14.199Z,17.45
2023-05-12T16:14:41.551Z,15.77
2023-05-12T16:17:08.853Z,14.90
2023-05-12T16:19:36.142Z,17.33
2023-05-12T16:22:03.720Z,18.65
2023-05-12T16:24:31.228Z,12.30
2023-05-12T16:26:59.436Z,14.20
2023-05-12T16:29:29.284Z,18.85
2023-05-12T16:31:56.674Z,14.55
2023-05-12T16:34:25.962Z,14.60
2023-05-12T16:36:53.482Z,14.40
2023-05-12T16:39:20.983Z,16.15
2023-05-12T16:41:50.553Z,16.48
2023-05-12T16:44:18.306Z,14.70
2023-05-12T16:46:46.173Z,13.43
2023-05-12T16:49:13.502Z,15.73
2023-05-12T16:51:43.721Z,18.20
2023-05-12T16:54:11.341Z,14.32
2023-05-12T16:56:38.804Z,18.55
2023-05-12T16:59:09.288Z,15.02
2023-05-12T17:01:39.439Z,15.48
2023-05-12T17:04:12.645Z,11.43
2023-05-12T17:06:39.925Z,18.13
2023-05-12T17:09:07.230Z,16.52
2023-05-12T17:11:34.426Z,17.23
2023-05-12T17:14:03.853Z,15.57
2023-05-12T17:16:31.174Z,15.05
2023-05-12T17:21:31.704Z,16.33
2023-05-12T17:23:59.154Z,17.33
2023-05-12T17:26:27.946Z,24.80
2023-05-12T17:28:58.259Z,15.23
2023-05-12T17:31:25.557Z,19.67
2023-05-12T17:33:53.199Z,18.08
2023-05-12T17:36:20.462Z,24.98
2023-05-12T17:38:54.529Z,19.20
2023-05-12T17:41:21.725Z,19.33
2023-05-12T17:43:49.038Z,18.27
2023-05-12T17:46:19.132Z,15.70
2023-05-12T17:48:46.461Z,14.35
2023-05-12T17:51:13.690Z,17.73
2023-05-12T17:53:41.013Z,16.98
2023-05-12T17:56:08.373Z,16.45
2023-05-12T17:58:35.566Z,21.00
2023-05-12T18:01:05.659Z,18.95
2023-05-12T18:03:32.846Z,18.35
2023-05-12T18:06:00.154Z,22.45
2023-05-12T18:08:32.400Z,19.35
2023-05-12T18:10:59.550Z,15.95
2023-05-12T18:13:27.060Z,15.82
2023-05-12T18:15:54.351Z,23.63
2023-05-12T18:18:22.439Z,17.48
2023-05-12T18:20:49.780Z,19.20
2023-05-12T18:23:17.119Z,20.27
2023-05-12T18:25:44.339Z,21.92
2023-05-12T18:28:11.836Z,24.67
2023-05-12T18:30:39.315Z,18.60
2023-05-12T18:33:06.722Z,18.42
2023-05-12T18:35:34.262Z,19.92
2023-05-12T18:38:02.136Z,20.92
2023-05-12T18:40:32.645Z,21.45
2023-05-12T18:43:00.287Z,26.00
2023-05-12T18:45:27.856Z,23.05
2023-05-12T18:47:55.231Z,19.45
2023-05-12T18:50:22.442Z,19.73
2023-05-12T18:52:50.711Z,19.73
2023-05-12T18:55:17.930Z,20.65
2023-05-12T18:57:45.300Z,36.17
2023-05-12T19:00:12.880Z,18.40
2023-05-12T19:02:42.386Z,21.42
2023-05-12T19:05:12.627Z,24.25
2023-05-12T19:07:41.596Z,20.98
2023-05-12T19:10:10.509Z,22.55
2023-05-12T19:12:38.061Z,20.27
2023-05-12T19:15:06.424Z,18.08
2023-05-12T19:17:33.749Z,23.42
2023-05-12T19:20:01.438Z,22.35
2023-05-12T19:22:28.687Z,20.48
2023-05-12T19:24:58.982Z,22.70
2023-05-12T19:27:27.130Z,18.92
2023-05-12T19:29:55.036Z,19.38
2023-05-12T19:32:22.558Z,24.55
2023-05-12T19:34:53.691Z,19.23
2023-05-12T19:37:23.841Z,20.20
2023-05-12T19:39:53.913Z,25.70
2023-05-12T19:42:23.993Z,25.20
2023-05-12T19:44:51.574Z,16.80
2023-05-12T19:47:19.077Z,26.05
2023-05-12T19:49:47.268Z,23.42
2023-05-12T19:52:14.507Z,17.27
2023-05-12T19:54:44.871Z,22.30
2023-05-12T19:57:14.649Z,19.15
2023-05-12T19:59:41.857Z,20.13
2023-05-12T20:02:13.015Z,19.58
2023-05-12T20:04:41.485Z,23.13
2023-05-12T20:07:09.989Z,17.08
2023-05-12T20:09:38.596Z,19.15
2023-05-12T20:12:09.218Z,16.90
2023-05-12T20:14:38.478Z,16.73
2023-05-12T20:17:07.710Z,18.35
2023-05-12T20:19:41.145Z,16.30
2023-05-12T20:22:08.254Z,22.02
2023-05-12T20:24:35.659Z,16.52
2023-05-12T20:27:03.792Z,19.35
2023-05-12T20:29:40.807Z,18.05
2023-05-12T20:32:08.180Z,19.38
2023-05-12T20:34:39.301Z,16.30
2023-05-12T20:37:16.686Z,17.48
2023-05-12T20:39:44.665Z,23.75
2023-05-12T20:42:12.038Z,16.92
2023-05-12T20:44:41.555Z,16.95
2023-05-12T20:47:09.144Z,19.42
2023-05-12T20:49:37.603Z,19.67
2023-05-12T20:52:06.409Z,18.08
2023-05-12T20:54:33.690Z,15.20
2023-05-12T20:57:01.188Z,14.38
2023-05-12T20:59:31.354Z,19.77
2023-05-12T21:01:59.596Z,20.20
2023-05-12T21:04:27.657Z,19.70
2023-05-12T21:06:58.082Z,25.02
2023-05-12T21:09:28.172Z,21.60
2023-05-12T21:11:57.336Z,18.92
2023-05-12T21:14:25.682Z,20.45
2023-05-12T21:16:53.017Z,14.80
2023-05-12T21:19:20.957Z,18.98
2023-05-12T21:21:48.144Z,20.42
2023-05-12T21:24:15.300Z,19.80
2023-05-12T21:26:42.428Z,21.23
2023-05-12T21:29:10.024Z,22.70
2023-05-12T21:31:37.643Z,24.10
2023-05-12T21:34:05.050Z,20.15
2023-05-12T21:36:33.655Z,17.63
2023-05-12T21:39:01.000Z,20.17
2023-05-12T21:41:28.424Z,23.67
2023-05-12T21:43:55.713Z,16.35
2023-05-12T21:46:22.951Z,19.65
2023-05-12T21:48:50.155Z,21.23
2023-05-12T21:51:17.314Z,19.20
2023-05-12T21:53:44.671Z,21.67
2023-05-12T21:56:12.406Z,18.05
2023-05-12T21:58:39.757Z,19.63
2023-05-12T22:01:07.089Z,18.00
2023-05-12T22:03:34.370Z,27.27
2023-05-12T22:06:02.240Z,21.55
2023-05-12T22:08:29.602Z,30.92
2023-05-12T22:11:00.165Z,28.58
2023-05-12T22:13:31.329Z,22.75
2023-05-12T22:16:00.026Z,24.08
2023-05-12T22:18:27.609Z,17.63
2023-05-12T22:20:54.914Z,20.25
2023-05-12T22:23:23.919Z,19.05
2023-05-12T22:25:51.397Z,17.75
2023-05-12T22:28:21.476Z,19.08
2023-05-12T22:30:48.754Z,25.00
2023-05-12T22:33:16.202Z,27.10
2023-05-12T22:35:43.999Z,15.57
2023-05-12T22:38:11.299Z,17.30
2023-05-12T22:40:38.705Z,19.73
2023-05-12T22:43:07.116Z,14.40
2023-05-12T22:45:34.291Z,17.67
2023-05-12T22:48:01.946Z,17.08
2023-05-12T22:50:29.187Z,19.02
2023-05-12T22:52:57.993Z,17.63
2023-05-12T22:55:30.839Z,16.83
2023-05-12T22:57:59.790Z,19.38
2023-05-12T23:00:27.340Z,15.65
2023-05-12T23:02:54.791Z,14.88
2023-05-12T23:05:22.491Z,14.60
2023-05-12T23:07:49.752Z,16.38
2023-05-12T23:10:17.186Z,14.07
2023-05-12T23:12:44.397Z,17.35
2023-05-12T23:15:12.058Z,14.63
2023-05-12T23:17:39.442Z,15.13
2023-05-12T23:20:07.846Z,16.15
2023-05-12T23:22:35.449Z,22.50
2023-05-12T23:25:02.787Z,19.95
2023-05-12T23:27:30.148Z,23.02
2023-05-12T23:29:57.417Z,23.65
2023-05-12T23:32:24.889Z,17.75
2023-05-12T23:34:52.333Z,23.75
2023-05-12T23:37:19.713Z,18.42
2023-05-12T23:39:46.998Z,17.25
2023-05-12T23:42:14.514Z,15.60
2023-05-12T23:44:42.028Z,17.92
2023-05-12T23:47:09.507Z,18.40
2023-05-12T23:49:36.781Z,17.10
2023-05-12T23:52:04.481Z,18.38
2023-05-12T23:54:31.724Z,20.67
2023-05-12T23:56:58.986Z,17.10
2023-05-12T23:59:26.162Z,20.27
